sensor_id;sensor_type;location;lat;lon;timestamp;temperature;humidity
69901;DHT22;57183;50.930;5.406;2022-08-14T00:00:40;19.80;90.40
69901;DHT22;57183;50.930;5.406;2022-08-14T00:03:05;19.80;90.00
69901;DHT22;57183;50.930;5.406;2022-08-14T00:05:31;19.80;90.20
69901;DHT22;57183;50.930;5.406;2022-08-14T00:07:57;19.60;90.60
69901;DHT22;57183;50.930;5.406;2022-08-14T00:10:23;19.50;90.80
69901;DHT22;57183;50.930;5.406;2022-08-14T00:12:54;19.40;91.10
69901;DHT22;57183;50.930;5.406;2022-08-14T00:17:49;19.10;92.20
69901;DHT22;57183;50.930;5.406;2022-08-14T00:20:17;19.00;92.70
69901;DHT22;57183;50.930;5.406;2022-08-14T00:22:42;19.00;93.20
69901;DHT22;57183;50.930;5.406;2022-08-14T00:25:09;19.00;93.20
69901;DHT22;57183;50.930;5.406;2022-08-14T00:27:35;18.90;93.80
69901;DHT22;57183;50.930;5.406;2022-08-14T00:30:05;18.80;94.30
69901;DHT22;57183;50.930;5.406;2022-08-14T00:32:31;18.80;94.70
69901;DHT22;57183;50.930;5.406;2022-08-14T00:34:56;18.70;94.70
69901;DHT22;57183;50.930;5.406;2022-08-14T00:37:29;18.70;95.00
69901;DHT22;57183;50.930;5.406;2022-08-14T00:39:54;18.70;95.50
69901;DHT22;57183;50.930;5.406;2022-08-14T00:42:21;18.70;96.00
69901;DHT22;57183;50.930;5.406;2022-08-14T00:44:48;18.60;96.00
69901;DHT22;57183;50.930;5.406;2022-08-14T00:47:15;18.50;96.30
69901;DHT22;57183;50.930;5.406;2022-08-14T00:49:42;18.40;97.60
69901;DHT22;57183;50.930;5.406;2022-08-14T00:52:08;18.40;97.10
69901;DHT22;57183;50.930;5.406;2022-08-14T00:54:34;18.40;97.40
69901;DHT22;57183;50.930;5.406;2022-08-14T00:57:03;18.50;97.30
69901;DHT22;57183;50.930;5.406;2022-08-14T00:59:29;18.40;97.90
69901;DHT22;57183;50.930;5.406;2022-08-14T01:01:58;18.40;98.40
69901;DHT22;57183;50.930;5.406;2022-08-14T01:04:25;18.30;98.60
69901;DHT22;57183;50.930;5.406;2022-08-14T01:06:51;18.20;99.40
69901;DHT22;57183;50.930;5.406;2022-08-14T01:09:19;18.20;99.50
69901;DHT22;57183;50.930;5.406;2022-08-14T01:11:48;18.20;99.90
69901;DHT22;57183;50.930;5.406;2022-08-14T01:14:16;18.10;99.90
69901;DHT22;57183;50.930;5.406;2022-08-14T01:16:42;18.10;99.90
69901;DHT22;57183;50.930;5.406;2022-08-14T01:19:07;18.10;99.90
69901;DHT22;57183;50.930;5.406;2022-08-14T01:21:53;18.40;99.90
69901;DHT22;57183;50.930;5.406;2022-08-14T01:24:20;18.60;99.90
69901;DHT22;57183;50.930;5.406;2022-08-14T01:26:46;18.50;99.90
69901;DHT22;57183;50.930;5.406;2022-08-14T01:29:12;18.40;99.90
69901;DHT22;57183;50.930;5.406;2022-08-14T01:31:39;18.30;99.90
69901;DHT22;57183;50.930;5.406;2022-08-14T01:34:14;18.20;99.90
69901;DHT22;57183;50.930;5.406;2022-08-14T01:36:40;18.00;99.90
69901;DHT22;57183;50.930;5.406;2022-08-14T01:39:10;18.10;99.90
69901;DHT22;57183;50.930;5.406;2022-08-14T01:41:36;18.00;99.90
69901;DHT22;57183;50.930;5.406;2022-08-14T01:44:07;17.90;99.90
69901;DHT22;57183;50.930;5.406;2022-08-14T01:46:36;17.90;99.90
69901;DHT22;57183;50.930;5.406;2022-08-14T01:49:06;17.80;99.90
69901;DHT22;57183;50.930;5.406;2022-08-14T01:51:32;17.70;99.90
69901;DHT22;57183;50.930;5.406;2022-08-14T01:54:02;17.70;99.90
69901;DHT22;57183;50.930;5.406;2022-08-14T01:56:30;17.60;99.90
69901;DHT22;57183;50.930;5.406;2022-08-14T01:59:26;17.60;99.90
69901;DHT22;57183;50.930;5.406;2022-08-14T02:01:58;17.60;99.90
69901;DHT22;57183;50.930;5.406;2022-08-14T02:04:26;17.50;99.90
69901;DHT22;57183;50.930;5.406;2022-08-14T02:06:52;17.50;99.90
69901;DHT22;57183;50.930;5.406;2022-08-14T02:09:19;17.50;99.90
69901;DHT22;57183;50.930;5.406;2022-08-14T02:11:46;17.40;99.90
69901;DHT22;57183;50.930;5.406;2022-08-14T02:14:12;17.40;99.90
69901;DHT22;57183;50.930;5.406;2022-08-14T02:16:41;17.40;99.90
69901;DHT22;57183;50.930;5.406;2022-08-14T02:19:13;17.80;99.90
69901;DHT22;57183;50.930;5.406;2022-08-14T02:21:42;17.90;99.90
69901;DHT22;57183;50.930;5.406;2022-08-14T02:24:09;17.70;99.90
69901;DHT22;57183;50.930;5.406;2022-08-14T02:26:37;17.70;99.90
69901;DHT22;57183;50.930;5.406;2022-08-14T02:29:09;17.50;99.90
69901;DHT22;57183;50.930;5.406;2022-08-14T02:31:38;17.50;99.90
69901;DHT22;57183;50.930;5.406;2022-08-14T02:36:38;17.30;99.90
69901;DHT22;57183;50.930;5.406;2022-08-14T02:39:06;17.30;99.90
69901;DHT22;57183;50.930;5.406;2022-08-14T02:41:33;17.30;99.90
69901;DHT22;57183;50.930;5.406;2022-08-14T02:43:59;17.30;99.90
69901;DHT22;57183;50.930;5.406;2022-08-14T02:46:25;17.30;99.90
69901;DHT22;57183;50.930;5.406;2022-08-14T02:48:52;17.20;99.90
69901;DHT22;57183;50.930;5.406;2022-08-14T02:51:17;17.20;99.90
69901;DHT22;57183;50.930;5.406;2022-08-14T02:53:44;17.10;99.90
69901;DHT22;57183;50.930;5.406;2022-08-14T02:56:14;17.10;99.90
69901;DHT22;57183;50.930;5.406;2022-08-14T02:58:43;17.10;99.90
69901;DHT22;57183;50.930;5.406;2022-08-14T03:01:12;17.00;99.90
69901;DHT22;57183;50.930;5.406;2022-08-14T03:03:38;16.90;99.90
69901;DHT22;57183;50.930;5.406;2022-08-14T03:06:05;16.90;99.90
69901;DHT22;57183;50.930;5.406;2022-08-14T03:08:32;16.90;99.90
69901;DHT22;57183;50.930;5.406;2022-08-14T03:10:59;16.80;99.90
69901;DHT22;57183;50.930;5.406;2022-08-14T03:13:25;16.80;99.90
69901;DHT22;57183;50.930;5.406;2022-08-14T03:15:52;16.80;99.90
69901;DHT22;57183;50.930;5.406;2022-08-14T03:18:19;16.90;99.90
69901;DHT22;57183;50.930;5.406;2022-08-14T03:20:49;16.80;99.90
69901;DHT22;57183;50.930;5.406;2022-08-14T03:23:15;16.80;99.90
69901;DHT22;57183;50.930;5.406;2022-08-14T03:25:41;16.90;99.90
69901;DHT22;57183;50.930;5.406;2022-08-14T03:28:09;16.80;99.90
69901;DHT22;57183;50.930;5.406;2022-08-14T03:30:35;16.80;99.90
69901;DHT22;57183;50.930;5.406;2022-08-14T03:33:03;16.70;99.90
69901;DHT22;57183;50.930;5.406;2022-08-14T03:35:29;16.70;99.90
69901;DHT22;57183;50.930;5.406;2022-08-14T03:38:03;16.60;99.90
69901;DHT22;57183;50.930;5.406;2022-08-14T03:40:29;16.70;99.90
69901;DHT22;57183;50.930;5.406;2022-08-14T03:42:54;16.60;99.90
69901;DHT22;57183;50.930;5.406;2022-08-14T03:45:20;16.60;99.90
69901;DHT22;57183;50.930;5.406;2022-08-14T03:47:46;16.50;99.90
69901;DHT22;57183;50.930;5.406;2022-08-14T03:50:12;16.60;99.90
69901;DHT22;57183;50.930;5.406;2022-08-14T03:52:39;16.90;99.90
69901;DHT22;57183;50.930;5.406;2022-08-14T03:55:07;17.20;99.90
69901;DHT22;57183;50.930;5.406;2022-08-14T03:57:34;17.20;99.90
69901;DHT22;57183;50.930;5.406;2022-08-14T04:00:03;17.10;99.90
69901;DHT22;57183;50.930;5.406;2022-08-14T04:02:31;17.00;99.90
69901;DHT22;57183;50.930;5.406;2022-08-14T04:04:57;16.90;99.90
69901;DHT22;57183;50.930;5.406;2022-08-14T04:07:22;16.70;99.90
69901;DHT22;57183;50.930;5.406;2022-08-14T04:09:48;16.70;99.90
69901;DHT22;57183;50.930;5.406;2022-08-14T04:12:14;16.60;99.90
69901;DHT22;57183;50.930;5.406;2022-08-14T04:14:39;16.50;99.90
69901;DHT22;57183;50.930;5.406;2022-08-14T04:17:05;16.50;99.90
69901;DHT22;57183;50.930;5.406;2022-08-14T04:19:31;16.50;99.90
69901;DHT22;57183;50.930;5.406;2022-08-14T04:21:57;16.60;99.90
69901;DHT22;57183;50.930;5.406;2022-08-14T04:24:22;16.40;99.90
69901;DHT22;57183;50.930;5.406;2022-08-14T04:26:48;16.50;99.90
69901;DHT22;57183;50.930;5.406;2022-08-14T04:29:14;16.40;99.90
69901;DHT22;57183;50.930;5.406;2022-08-14T04:31:40;16.30;99.90
69901;DHT22;57183;50.930;5.406;2022-08-14T04:34:07;16.20;99.90
69901;DHT22;57183;50.930;5.406;2022-08-14T04:36:32;16.20;99.90
69901;DHT22;57183;50.930;5.406;2022-08-14T04:39:18;16.20;99.90
69901;DHT22;57183;50.930;5.406;2022-08-14T04:42:02;16.20;99.90
69901;DHT22;57183;50.930;5.406;2022-08-14T04:44:46;16.30;99.90
69901;DHT22;57183;50.930;5.406;2022-08-14T04:47:12;16.20;99.90
69901;DHT22;57183;50.930;5.406;2022-08-14T04:49:56;16.30;99.90
69901;DHT22;57183;50.930;5.406;2022-08-14T04:52:22;16.20;99.90
69901;DHT22;57183;50.930;5.406;2022-08-14T04:54:48;16.20;99.90
69901;DHT22;57183;50.930;5.406;2022-08-14T04:57:14;16.20;99.90
69901;DHT22;57183;50.930;5.406;2022-08-14T04:59:39;16.20;99.90
69901;DHT22;57183;50.930;5.406;2022-08-14T05:02:05;16.20;99.90
69901;DHT22;57183;50.930;5.406;2022-08-14T05:04:31;16.20;99.90
69901;DHT22;57183;50.930;5.406;2022-08-14T05:06:57;16.30;99.90
69901;DHT22;57183;50.930;5.406;2022-08-14T05:09:23;16.30;99.90
69901;DHT22;57183;50.930;5.406;2022-08-14T05:11:50;16.20;99.90
69901;DHT22;57183;50.930;5.406;2022-08-14T05:14:15;16.30;99.90
69901;DHT22;57183;50.930;5.406;2022-08-14T05:16:43;16.40;99.90
69901;DHT22;57183;50.930;5.406;2022-08-14T05:19:09;16.40;99.90
69901;DHT22;57183;50.930;5.406;2022-08-14T05:21:39;16.40;99.90
69901;DHT22;57183;50.930;5.406;2022-08-14T05:24:05;16.50;99.90
69901;DHT22;57183;50.930;5.406;2022-08-14T05:26:30;16.50;99.90
69901;DHT22;57183;50.930;5.406;2022-08-14T05:28:56;16.60;99.90
69901;DHT22;57183;50.930;5.406;2022-08-14T05:31:22;16.70;99.90
69901;DHT22;57183;50.930;5.406;2022-08-14T05:33:48;16.80;99.90
69901;DHT22;57183;50.930;5.406;2022-08-14T05:36:14;16.80;99.90
69901;DHT22;57183;50.930;5.406;2022-08-14T05:38:42;16.90;99.90
69901;DHT22;57183;50.930;5.406;2022-08-14T05:41:10;16.90;99.90
69901;DHT22;57183;50.930;5.406;2022-08-14T05:43:38;16.90;99.90
69901;DHT22;57183;50.930;5.406;2022-08-14T05:46:05;17.00;99.90
69901;DHT22;57183;50.930;5.406;2022-08-14T05:48:31;17.00;99.90
69901;DHT22;57183;50.930;5.406;2022-08-14T05:50:57;17.10;99.90
69901;DHT22;57183;50.930;5.406;2022-08-14T05:53:25;17.20;99.90
69901;DHT22;57183;50.930;5.406;2022-08-14T05:55:52;17.40;99.90
69901;DHT22;57183;50.930;5.406;2022-08-14T05:58:18;17.50;99.90
69901;DHT22;57183;50.930;5.406;2022-08-14T06:00:45;17.60;99.90
69901;DHT22;57183;50.930;5.406;2022-08-14T06:03:19;17.70;99.90
69901;DHT22;57183;50.930;5.406;2022-08-14T06:05:47;17.90;99.90
69901;DHT22;57183;50.930;5.406;2022-08-14T06:10:43;18.10;99.90
69901;DHT22;57183;50.930;5.406;2022-08-14T06:13:09;18.20;99.90
69901;DHT22;57183;50.930;5.406;2022-08-14T06:15:35;18.40;99.90
69901;DHT22;57183;50.930;5.406;2022-08-14T06:18:01;18.60;99.90
69901;DHT22;57183;50.930;5.406;2022-08-14T06:20:28;18.80;99.90
69901;DHT22;57183;50.930;5.406;2022-08-14T06:22:54;19.00;99.90
69901;DHT22;57183;50.930;5.406;2022-08-14T06:25:20;19.30;99.90
69901;DHT22;57183;50.930;5.406;2022-08-14T06:27:47;19.50;99.90
69901;DHT22;57183;50.930;5.406;2022-08-14T06:30:15;19.70;99.90
69901;DHT22;57183;50.930;5.406;2022-08-14T06:32:42;20.10;99.90
69901;DHT22;57183;50.930;5.406;2022-08-14T06:35:10;20.30;99.90
69901;DHT22;57183;50.930;5.406;2022-08-14T06:37:50;20.60;99.90
69901;DHT22;57183;50.930;5.406;2022-08-14T06:40:31;20.90;99.60
69901;DHT22;57183;50.930;5.406;2022-08-14T06:43:00;21.10;98.80
69901;DHT22;57183;50.930;5.406;2022-08-14T06:45:26;21.30;98.10
69901;DHT22;57183;50.930;5.406;2022-08-14T06:47:52;21.50;97.00
69901;DHT22;57183;50.930;5.406;2022-08-14T06:50:19;21.70;95.40
69901;DHT22;57183;50.930;5.406;2022-08-14T06:52:46;21.90;94.70
69901;DHT22;57183;50.930;5.406;2022-08-14T06:55:13;22.00;93.80
69901;DHT22;57183;50.930;5.406;2022-08-14T06:57:41;22.10;92.90
69901;DHT22;57183;50.930;5.406;2022-08-14T07:00:13;22.30;92.00
69901;DHT22;57183;50.930;5.406;2022-08-14T07:02:39;22.40;91.50
69901;DHT22;57183;50.930;5.406;2022-08-14T07:05:23;22.60;90.80
69901;DHT22;57183;50.930;5.406;2022-08-14T07:08:23;22.90;87.70
69901;DHT22;57183;50.930;5.406;2022-08-14T07:10:54;23.10;87.30
69901;DHT22;57183;50.930;5.406;2022-08-14T07:13:21;23.20;88.10
69901;DHT22;57183;50.930;5.406;2022-08-14T07:15:52;23.40;86.40
69901;DHT22;57183;50.930;5.406;2022-08-14T07:18:26;23.60;85.10
69901;DHT22;57183;50.930;5.406;2022-08-14T07:20:52;23.80;84.50
69901;DHT22;57183;50.930;5.406;2022-08-14T07:23:19;23.90;83.50
69901;DHT22;57183;50.930;5.406;2022-08-14T07:25:45;24.00;82.00
69901;DHT22;57183;50.930;5.406;2022-08-14T07:28:16;24.10;80.90
69901;DHT22;57183;50.930;5.406;2022-08-14T07:30:43;24.30;81.20
69901;DHT22;57183;50.930;5.406;2022-08-14T07:33:09;24.40;80.40
69901;DHT22;57183;50.930;5.406;2022-08-14T07:35:36;24.60;79.30
69901;DHT22;57183;50.930;5.406;2022-08-14T07:38:04;24.70;78.70
69901;DHT22;57183;50.930;5.406;2022-08-14T07:40:30;24.80;79.40
69901;DHT22;57183;50.930;5.406;2022-08-14T07:42:56;24.90;78.20
69901;DHT22;57183;50.930;5.406;2022-08-14T07:45:22;25.10;78.20
69901;DHT22;57183;50.930;5.406;2022-08-14T07:47:47;25.20;77.00
69901;DHT22;57183;50.930;5.406;2022-08-14T07:50:15;25.30;75.40
69901;DHT22;57183;50.930;5.406;2022-08-14T07:52:43;25.50;74.60
69901;DHT22;57183;50.930;5.406;2022-08-14T07:55:10;25.70;73.30
69901;DHT22;57183;50.930;5.406;2022-08-14T07:57:39;25.90;71.00
69901;DHT22;57183;50.930;5.406;2022-08-14T08:00:10;26.00;71.90
69901;DHT22;57183;50.930;5.406;2022-08-14T08:02:40;26.20;71.20
69901;DHT22;57183;50.930;5.406;2022-08-14T08:05:07;26.40;71.10
69901;DHT22;57183;50.930;5.406;2022-08-14T08:07:33;26.50;70.40
69901;DHT22;57183;50.930;5.406;2022-08-14T08:10:04;26.70;69.00
69901;DHT22;57183;50.930;5.406;2022-08-14T08:12:51;26.80;68.40
69901;DHT22;57183;50.930;5.406;2022-08-14T08:15:18;26.90;71.20
69901;DHT22;57183;50.930;5.406;2022-08-14T08:17:44;27.30;75.00
69901;DHT22;57183;50.930;5.406;2022-08-14T08:20:18;27.40;70.70
69901;DHT22;57183;50.930;5.406;2022-08-14T08:22:45;27.50;68.70
69901;DHT22;57183;50.930;5.406;2022-08-14T08:25:11;27.70;69.80
69901;DHT22;57183;50.930;5.406;2022-08-14T08:27:37;27.80;66.10
69901;DHT22;57183;50.930;5.406;2022-08-14T08:30:08;28.00;66.60
69901;DHT22;57183;50.930;5.406;2022-08-14T08:32:40;28.10;65.80
69901;DHT22;57183;50.930;5.406;2022-08-14T08:35:15;28.10;66.30
69901;DHT22;57183;50.930;5.406;2022-08-14T08:37:40;28.30;64.70
69901;DHT22;57183;50.930;5.406;2022-08-14T08:40:06;28.50;64.70
69901;DHT22;57183;50.930;5.406;2022-08-14T08:42:32;28.70;64.90
69901;DHT22;57183;50.930;5.406;2022-08-14T08:44:58;28.90;62.50
69901;DHT22;57183;50.930;5.406;2022-08-14T08:47:23;29.00;62.50
69901;DHT22;57183;50.930;5.406;2022-08-14T08:49:49;29.20;61.20
69901;DHT22;57183;50.930;5.406;2022-08-14T08:52:16;29.30;61.00
69901;DHT22;57183;50.930;5.406;2022-08-14T08:54:52;29.30;61.30
69901;DHT22;57183;50.930;5.406;2022-08-14T08:57:18;29.50;60.10
69901;DHT22;57183;50.930;5.406;2022-08-14T08:59:44;29.60;58.80
69901;DHT22;57183;50.930;5.406;2022-08-14T09:02:09;29.80;59.30
69901;DHT22;57183;50.930;5.406;2022-08-14T09:04:40;30.00;59.40
69901;DHT22;57183;50.930;5.406;2022-08-14T09:07:07;30.00;56.80
69901;DHT22;57183;50.930;5.406;2022-08-14T09:09:33;29.90;56.80
69901;DHT22;57183;50.930;5.406;2022-08-14T09:12:00;29.90;57.60
69901;DHT22;57183;50.930;5.406;2022-08-14T09:14:28;29.90;57.10
69901;DHT22;57183;50.930;5.406;2022-08-14T09:16:56;30.10;56.30
69901;DHT22;57183;50.930;5.406;2022-08-14T09:19:23;30.20;56.20
69901;DHT22;57183;50.930;5.406;2022-08-14T09:21:49;30.40;55.40
69901;DHT22;57183;50.930;5.406;2022-08-14T09:24:15;30.60;55.30
69901;DHT22;57183;50.930;5.406;2022-08-14T09:26:42;30.80;55.40
69901;DHT22;57183;50.930;5.406;2022-08-14T09:29:09;31.00;53.80
69901;DHT22;57183;50.930;5.406;2022-08-14T09:31:37;31.20;53.70
69901;DHT22;57183;50.930;5.406;2022-08-14T09:42:34;31.50;51.30
69901;DHT22;57183;50.930;5.406;2022-08-14T09:45:02;31.40;51.60
69901;DHT22;57183;50.930;5.406;2022-08-14T09:47:55;31.50;51.20
69901;DHT22;57183;50.930;5.406;2022-08-14T09:50:29;31.80;49.50
69901;DHT22;57183;50.930;5.406;2022-08-14T09:53:02;31.90;50.30
69901;DHT22;57183;50.930;5.406;2022-08-14T09:55:29;31.90;50.30
69901;DHT22;57183;50.930;5.406;2022-08-14T10:03:08;32.10;46.50
69901;DHT22;57183;50.930;5.406;2022-08-14T10:05:35;32.30;47.20
69901;DHT22;57183;50.930;5.406;2022-08-14T10:08:02;32.60;45.40
69901;DHT22;57183;50.930;5.406;2022-08-14T10:10:36;32.60;46.40
69901;DHT22;57183;50.930;5.406;2022-08-14T10:13:05;32.60;44.30
69901;DHT22;57183;50.930;5.406;2022-08-14T10:15:32;32.60;45.20
69901;DHT22;57183;50.930;5.406;2022-08-14T10:18:13;32.70;47.00
69901;DHT22;57183;50.930;5.406;2022-08-14T10:20:55;32.60;45.10
69901;DHT22;57183;50.930;5.406;2022-08-14T10:23:23;32.50;44.20
69901;DHT22;57183;50.930;5.406;2022-08-14T10:25:55;32.30;45.40
69901;DHT22;57183;50.930;5.406;2022-08-14T10:28:22;32.40;43.90
69901;DHT22;57183;50.930;5.406;2022-08-14T10:30:49;32.60;44.00
69901;DHT22;57183;50.930;5.406;2022-08-14T10:33:28;32.40;43.60
69901;DHT22;57183;50.930;5.406;2022-08-14T10:35:55;32.50;43.20
69901;DHT22;57183;50.930;5.406;2022-08-14T10:38:29;32.40;44.50
69901;DHT22;57183;50.930;5.406;2022-08-14T10:41:12;32.30;43.00
69901;DHT22;57183;50.930;5.406;2022-08-14T10:43:39;32.30;43.40
69901;DHT22;57183;50.930;5.406;2022-08-14T10:46:12;32.40;44.00
69901;DHT22;57183;50.930;5.406;2022-08-14T10:48:38;32.50;44.80
69901;DHT22;57183;50.930;5.406;2022-08-14T10:51:04;32.50;44.10
69901;DHT22;57183;50.930;5.406;2022-08-14T10:53:31;32.60;42.80
69901;DHT22;57183;50.930;5.406;2022-08-14T10:55:59;32.60;41.70
69901;DHT22;57183;50.930;5.406;2022-08-14T10:58:29;32.80;42.40
69901;DHT22;57183;50.930;5.406;2022-08-14T11:00:58;32.80;43.90
69901;DHT22;57183;50.930;5.406;2022-08-14T11:03:37;33.00;43.30
69901;DHT22;57183;50.930;5.406;2022-08-14T11:06:14;33.00;43.60
69901;DHT22;57183;50.930;5.406;2022-08-14T11:08:43;33.30;43.20
69901;DHT22;57183;50.930;5.406;2022-08-14T11:11:09;33.40;42.50
69901;DHT22;57183;50.930;5.406;2022-08-14T11:13:34;33.70;42.20
69901;DHT22;57183;50.930;5.406;2022-08-14T11:16:03;33.90;41.80
69901;DHT22;57183;50.930;5.406;2022-08-14T11:18:30;34.00;42.10
69901;DHT22;57183;50.930;5.406;2022-08-14T11:20:58;34.30;42.40
69901;DHT22;57183;50.930;5.406;2022-08-14T11:23:29;34.30;41.90
69901;DHT22;57183;50.930;5.406;2022-08-14T11:25:57;34.30;41.70
69901;DHT22;57183;50.930;5.406;2022-08-14T11:28:26;34.30;41.30
69901;DHT22;57183;50.930;5.406;2022-08-14T11:30:53;34.40;40.70
69901;DHT22;57183;50.930;5.406;2022-08-14T11:33:25;34.60;41.30
69901;DHT22;57183;50.930;5.406;2022-08-14T11:35:53;34.80;41.00
69901;DHT22;57183;50.930;5.406;2022-08-14T11:38:19;34.90;41.50
69901;DHT22;57183;50.930;5.406;2022-08-14T11:40:47;35.00;40.80
69901;DHT22;57183;50.930;5.406;2022-08-14T11:43:14;35.10;41.60
69901;DHT22;57183;50.930;5.406;2022-08-14T11:45:44;34.70;41.10
69901;DHT22;57183;50.930;5.406;2022-08-14T11:48:17;34.90;41.10
69901;DHT22;57183;50.930;5.406;2022-08-14T11:50:44;34.90;40.20
69901;DHT22;57183;50.930;5.406;2022-08-14T11:53:28;34.70;40.70
69901;DHT22;57183;50.930;5.406;2022-08-14T11:56:02;35.00;41.90
69901;DHT22;57183;50.930;5.406;2022-08-14T11:58:33;35.10;39.70
69901;DHT22;57183;50.930;5.406;2022-08-14T12:01:01;35.20;39.90
69901;DHT22;57183;50.930;5.406;2022-08-14T12:03:42;35.20;40.00
69901;DHT22;57183;50.930;5.406;2022-08-14T12:06:14;35.30;39.50
69901;DHT22;57183;50.930;5.406;2022-08-14T12:08:40;35.40;39.70
69901;DHT22;57183;50.930;5.406;2022-08-14T12:11:10;34.80;40.20
69901;DHT22;57183;50.930;5.406;2022-08-14T12:13:38;34.70;40.80
69901;DHT22;57183;50.930;5.406;2022-08-14T12:16:07;34.90;40.80
69901;DHT22;57183;50.930;5.406;2022-08-14T12:18:38;34.80;40.00
69901;DHT22;57183;50.930;5.406;2022-08-14T12:21:17;34.80;40.10
69901;DHT22;57183;50.930;5.406;2022-08-14T12:23:44;34.40;40.70
69901;DHT22;57183;50.930;5.406;2022-08-14T12:26:14;34.60;40.90
69901;DHT22;57183;50.930;5.406;2022-08-14T12:28:50;34.70;40.20
69901;DHT22;57183;50.930;5.406;2022-08-14T12:31:18;34.80;40.00
69901;DHT22;57183;50.930;5.406;2022-08-14T12:34:02;34.90;39.80
69901;DHT22;57183;50.930;5.406;2022-08-14T12:36:28;35.00;40.50
69901;DHT22;57183;50.930;5.406;2022-08-14T12:38:58;35.00;40.50
69901;DHT22;57183;50.930;5.406;2022-08-14T12:41:26;34.90;40.00
69901;DHT22;57183;50.930;5.406;2022-08-14T12:46:27;34.80;40.60
69901;DHT22;57183;50.930;5.406;2022-08-14T12:48:53;34.70;40.20
69901;DHT22;57183;50.930;5.406;2022-08-14T12:51:21;34.60;40.60
69901;DHT22;57183;50.930;5.406;2022-08-14T12:53:47;34.70;40.30
69901;DHT22;57183;50.930;5.406;2022-08-14T12:56:18;34.70;40.50
69901;DHT22;57183;50.930;5.406;2022-08-14T12:58:55;34.80;40.50
69901;DHT22;57183;50.930;5.406;2022-08-14T13:03:48;34.60;40.90
69901;DHT22;57183;50.930;5.406;2022-08-14T13:06:14;34.30;40.70
69901;DHT22;57183;50.930;5.406;2022-08-14T13:08:41;34.10;40.60
69901;DHT22;57183;50.930;5.406;2022-08-14T13:11:12;34.10;42.20
69901;DHT22;57183;50.930;5.406;2022-08-14T13:13:41;34.30;41.70
69901;DHT22;57183;50.930;5.406;2022-08-14T13:16:10;34.30;40.40
69901;DHT22;57183;50.930;5.406;2022-08-14T13:18:40;34.10;41.30
69901;DHT22;57183;50.930;5.406;2022-08-14T13:21:08;34.10;42.00
69901;DHT22;57183;50.930;5.406;2022-08-14T13:23:36;34.20;41.40
69901;DHT22;57183;50.930;5.406;2022-08-14T13:26:03;34.00;41.30
69901;DHT22;57183;50.930;5.406;2022-08-14T13:28:30;33.90;42.00
69901;DHT22;57183;50.930;5.406;2022-08-14T13:31:00;34.00;41.40
69901;DHT22;57183;50.930;5.406;2022-08-14T13:33:29;33.70;41.70
69901;DHT22;57183;50.930;5.406;2022-08-14T13:35:56;33.70;41.60
69901;DHT22;57183;50.930;5.406;2022-08-14T13:38:21;33.80;41.70
69901;DHT22;57183;50.930;5.406;2022-08-14T13:40:54;33.80;41.10
69901;DHT22;57183;50.930;5.406;2022-08-14T13:43:21;34.10;41.00
69901;DHT22;57183;50.930;5.406;2022-08-14T13:45:51;34.30;41.30
69901;DHT22;57183;50.930;5.406;2022-08-14T13:48:23;34.40;40.70
69901;DHT22;57183;50.930;5.406;2022-08-14T13:50:53;34.30;40.50
69901;DHT22;57183;50.930;5.406;2022-08-14T13:53:22;34.60;40.80
69901;DHT22;57183;50.930;5.406;2022-08-14T13:55:50;34.70;40.60
69901;DHT22;57183;50.930;5.406;2022-08-14T13:58:19;34.90;40.30
69901;DHT22;57183;50.930;5.406;2022-08-14T14:00:46;35.10;40.40
69901;DHT22;57183;50.930;5.406;2022-08-14T14:03:13;35.30;40.00
69901;DHT22;57183;50.930;5.406;2022-08-14T14:05:40;35.40;39.50
69901;DHT22;57183;50.930;5.406;2022-08-14T14:08:07;35.10;39.50
69901;DHT22;57183;50.930;5.406;2022-08-14T14:10:35;35.20;39.80
69901;DHT22;57183;50.930;5.406;2022-08-14T14:13:02;35.10;39.80
69901;DHT22;57183;50.930;5.406;2022-08-14T14:15:30;35.30;39.70
69901;DHT22;57183;50.930;5.406;2022-08-14T14:17:56;35.60;39.50
69901;DHT22;57183;50.930;5.406;2022-08-14T14:20:24;36.90;38.00
69901;DHT22;57183;50.930;5.406;2022-08-14T14:22:51;38.50;36.80
69901;DHT22;57183;50.930;5.406;2022-08-14T14:25:18;38.70;35.40
69901;DHT22;57183;50.930;5.406;2022-08-14T14:27:46;38.30;35.50
69901;DHT22;57183;50.930;5.406;2022-08-14T14:30:14;39.20;35.50
69901;DHT22;57183;50.930;5.406;2022-08-14T14:32:43;40.60;35.40
69901;DHT22;57183;50.930;5.406;2022-08-14T14:35:14;41.40;33.80
69901;DHT22;57183;50.930;5.406;2022-08-14T14:37:42;42.00;33.30
69901;DHT22;57183;50.930;5.406;2022-08-14T14:40:09;43.00;32.80
69901;DHT22;57183;50.930;5.406;2022-08-14T14:42:47;43.10;31.40
69901;DHT22;57183;50.930;5.406;2022-08-14T14:45:15;43.40;31.90
69901;DHT22;57183;50.930;5.406;2022-08-14T14:47:48;43.90;31.10
69901;DHT22;57183;50.930;5.406;2022-08-14T14:50:16;44.90;30.00
69901;DHT22;57183;50.930;5.406;2022-08-14T14:52:42;45.40;29.70
69901;DHT22;57183;50.930;5.406;2022-08-14T14:55:10;45.70;29.10
69901;DHT22;57183;50.930;5.406;2022-08-14T14:57:39;44.70;29.50
69901;DHT22;57183;50.930;5.406;2022-08-14T15:00:08;43.70;30.00
69901;DHT22;57183;50.930;5.406;2022-08-14T15:02:38;42.20;30.80
69901;DHT22;57183;50.930;5.406;2022-08-14T15:05:06;41.20;32.30
69901;DHT22;57183;50.930;5.406;2022-08-14T15:07:33;40.40;32.10
69901;DHT22;57183;50.930;5.406;2022-08-14T15:09:59;39.80;33.20
69901;DHT22;57183;50.930;5.406;2022-08-14T15:12:25;39.30;34.10
69901;DHT22;57183;50.930;5.406;2022-08-14T15:14:51;39.30;34.10
69901;DHT22;57183;50.930;5.406;2022-08-14T15:17:16;39.70;33.90
69901;DHT22;57183;50.930;5.406;2022-08-14T15:19:43;40.20;33.80
69901;DHT22;57183;50.930;5.406;2022-08-14T15:22:09;39.70;33.20
69901;DHT22;57183;50.930;5.406;2022-08-14T15:24:36;39.90;33.10
69901;DHT22;57183;50.930;5.406;2022-08-14T15:27:02;39.40;33.40
69901;DHT22;57183;50.930;5.406;2022-08-14T15:29:32;39.10;33.70
69901;DHT22;57183;50.930;5.406;2022-08-14T15:32:07;39.10;34.10
69901;DHT22;57183;50.930;5.406;2022-08-14T15:34:35;39.00;34.30
69901;DHT22;57183;50.930;5.406;2022-08-14T15:37:02;38.50;34.60
69901;DHT22;57183;50.930;5.406;2022-08-14T15:39:29;38.20;34.50
69901;DHT22;57183;50.930;5.406;2022-08-14T15:41:55;38.10;35.60
69901;DHT22;57183;50.930;5.406;2022-08-14T15:44:22;37.90;34.80
69901;DHT22;57183;50.930;5.406;2022-08-14T15:46:48;37.50;35.50
69901;DHT22;57183;50.930;5.406;2022-08-14T15:49:14;37.50;35.80
69901;DHT22;57183;50.930;5.406;2022-08-14T15:51:39;37.50;35.40
69901;DHT22;57183;50.930;5.406;2022-08-14T15:54:05;37.30;35.30
69901;DHT22;57183;50.930;5.406;2022-08-14T15:56:30;37.40;35.70
69901;DHT22;57183;50.930;5.406;2022-08-14T15:58:56;37.50;35.60
69901;DHT22;57183;50.930;5.406;2022-08-14T16:01:22;37.50;35.20
69901;DHT22;57183;50.930;5.406;2022-08-14T16:03:51;37.20;35.10